ADDS METAR Data INFO
IDs: Format: Raw Decoded Include TAF

Data at: 1510 UTC 29 May 2017

METAR for:KJCT (Junction/Kimble Cnty, TX, US)
Text:KJCT 291451Z AUTO 08009KT 10SM OVC016 23/19 A3011 RMK AO2 SLP162 T02280189 51022 TSNO
Temperature: 22.8°C ( 73°F)
Dewpoint: 18.9°C ( 66°F) [RH = 79%]
Pressure (altimeter):30.11 inches Hg (1019.7 mb) [Sea level pressure: 1016.2 mb]
Winds:from the E (80 degrees) at 10 MPH (9 knots; 4.6 m/s)
Visibility:10 or more sm (16+ km)
Ceiling:1600 feet AGL
Clouds: overcast cloud deck at 1600 feet AGL
QC Flag:automated observation with no human augmentation


Page loaded:  15:10 UTC  |   08:10 AM Pacific  |   09:10 AM Mountain  |   10:10 AM Central  |   11:10 AM Eastern

 

ADVISORIES

FORECASTS

FORECASTS

OBSERVATIONS

USER TOOLS

ABOUT US